createdAt,value
2023-05-12T00:00:31.812Z,123
2023-05-12T00:01:38.685Z,123
2023-05-12T00:02:45.526Z,120
2023-05-12T00:03:52.522Z,122
2023-05-12T00:04:59.294Z,122
2023-05-12T00:06:06.129Z,134
2023-05-12T00:07:13.075Z,125
2023-05-12T00:08:19.952Z,116
2023-05-12T00:09:26.784Z,109
2023-05-12T00:10:33.617Z,127
2023-05-12T00:11:40.415Z,106
2023-05-12T00:12:47.364Z,110
2023-05-12T00:13:54.267Z,110
2023-05-12T00:15:01.012Z,122
2023-05-12T00:16:08.166Z,119
2023-05-12T00:17:14.963Z,108
2023-05-12T00:18:21.914Z,113
2023-05-12T00:19:28.772Z,121
2023-05-12T00:20:35.594Z,117
2023-05-12T00:21:42.491Z,96
2023-05-12T00:22:49.345Z,108
2023-05-12T00:23:56.186Z,100
2023-05-12T00:25:03.063Z,108
2023-05-12T00:26:09.947Z,130
2023-05-12T00:27:16.794Z,117
2023-05-12T00:28:23.664Z,103
2023-05-12T00:29:30.490Z,119
2023-05-12T00:30:37.336Z,122
2023-05-12T00:31:44.165Z,120
2023-05-12T00:32:51.109Z,124
2023-05-12T00:33:57.886Z,110
2023-05-12T00:35:04.717Z,119
2023-05-12T00:36:11.835Z,118
2023-05-12T00:37:18.663Z,113
2023-05-12T00:38:25.529Z,120
2023-05-12T00:39:32.428Z,109
2023-05-12T00:40:39.246Z,97
2023-05-12T00:41:46.065Z,122
2023-05-12T00:42:52.894Z,120
2023-05-12T00:43:59.849Z,121
2023-05-12T00:45:06.754Z,114
2023-05-12T00:46:13.953Z,119
2023-05-12T00:47:20.653Z,120
2023-05-12T00:48:27.470Z,104
2023-05-12T00:49:34.399Z,108
2023-05-12T00:50:41.162Z,125
2023-05-12T00:51:47.992Z,125
2023-05-12T00:52:54.863Z,119
2023-05-12T00:54:01.687Z,118
2023-05-12T00:55:08.639Z,119
2023-05-12T00:56:15.438Z,117
2023-05-12T00:57:22.279Z,116
2023-05-12T00:58:29.167Z,124
2023-05-12T00:59:36.223Z,119
2023-05-12T01:00:43.108Z,122
2023-05-12T01:01:49.930Z,117
2023-05-12T01:02:56.958Z,121
2023-05-12T01:04:03.732Z,119
2023-05-12T01:05:10.681Z,117
2023-05-12T01:06:17.488Z,122
2023-05-12T01:07:34.436Z,125
2023-05-12T01:08:41.373Z,121
2023-05-12T01:09:48.281Z,120
2023-05-12T01:10:57.785Z,119
2023-05-12T01:12:04.670Z,117
2023-05-12T01:13:31.140Z,118
2023-05-12T01:14:38.028Z,127
2023-05-12T01:15:45.021Z,120
2023-05-12T01:17:55.181Z,120
2023-05-12T01:19:02.134Z,120
2023-05-12T01:20:38.520Z,117
2023-05-12T01:21:48.093Z,121
2023-05-12T01:22:54.903Z,122
2023-05-12T01:24:01.792Z,122
2023-05-12T01:25:08.619Z,114
2023-05-12T01:26:15.374Z,123
2023-05-12T01:27:22.220Z,120
2023-05-12T01:28:31.787Z,124
2023-05-12T01:29:38.699Z,119
2023-05-12T01:30:45.589Z,117
2023-05-12T01:31:52.408Z,117
2023-05-12T01:32:59.286Z,122
2023-05-12T01:34:06.056Z,113
2023-05-12T01:35:12.972Z,113
2023-05-12T01:36:19.862Z,120
2023-05-12T01:37:26.732Z,118
2023-05-12T01:38:33.474Z,120
2023-05-12T01:39:40.397Z,115
2023-05-12T01:40:47.140Z,118
2023-05-12T01:41:53.979Z,115
2023-05-12T01:43:00.829Z,120
2023-05-12T01:44:07.666Z,116
2023-05-12T01:45:14.511Z,118
2023-05-12T01:46:21.478Z,116
2023-05-12T01:47:28.416Z,120
2023-05-12T01:48:35.191Z,124
2023-05-12T01:49:41.954Z,120
2023-05-12T01:50:48.854Z,122
2023-05-12T01:51:55.744Z,118
2023-05-12T01:53:02.580Z,125
2023-05-12T01:54:09.350Z,114
2023-05-12T01:55:16.227Z,117
2023-05-12T01:56:23.128Z,121
2023-05-12T01:57:29.935Z,118
2023-05-12T01:58:36.914Z,121
2023-05-12T01:59:44.745Z,120
2023-05-12T02:00:51.542Z,114
2023-05-12T02:01:58.611Z,119
2023-05-12T02:03:05.557Z,118
2023-05-12T02:04:12.387Z,124
2023-05-12T02:05:19.210Z,112
2023-05-12T02:06:26.091Z,118
2023-05-12T02:07:33.044Z,121
2023-05-12T02:08:40.048Z,116
2023-05-12T02:09:46.903Z,120
2023-05-12T02:10:53.729Z,116
2023-05-12T02:12:10.710Z,121
2023-05-12T02:13:17.524Z,120
2023-05-12T02:14:24.344Z,119
2023-05-12T02:15:31.284Z,120
2023-05-12T02:16:38.332Z,118
2023-05-12T02:17:45.164Z,119
2023-05-12T02:18:51.989Z,118
2023-05-12T02:19:58.807Z,110
2023-05-12T02:21:05.633Z,123
2023-05-12T02:22:12.559Z,120
2023-05-12T02:23:20.761Z,109
2023-05-12T02:24:27.557Z,122
2023-05-12T02:25:34.419Z,121
2023-05-12T02:26:41.261Z,119
2023-05-12T02:27:48.131Z,119
2023-05-12T02:28:55.099Z,119
2023-05-12T02:30:01.926Z,120
2023-05-12T02:31:09.200Z,123
2023-05-12T02:32:16.050Z,120
2023-05-12T02:33:22.943Z,124
2023-05-12T02:34:29.761Z,121
2023-05-12T02:35:36.659Z,122
2023-05-12T02:36:43.638Z,124
2023-05-12T02:37:50.509Z,119
2023-05-12T02:38:57.365Z,121
2023-05-12T02:40:04.183Z,124
2023-05-12T02:41:11.426Z,117
2023-05-12T02:42:18.320Z,119
2023-05-12T02:43:25.197Z,124
2023-05-12T02:44:32.079Z,119
2023-05-12T02:45:39.733Z,118
2023-05-12T02:46:46.611Z,116
2023-05-12T02:47:53.517Z,116
2023-05-12T02:49:00.379Z,114
2023-05-12T02:50:07.444Z,116
2023-05-12T02:51:14.307Z,115
2023-05-12T02:52:21.202Z,119
2023-05-12T02:53:28.132Z,121
2023-05-12T02:54:35.012Z,124
2023-05-12T02:55:41.928Z,121
2023-05-12T02:56:48.736Z,122
2023-05-12T02:57:55.641Z,123
2023-05-12T02:59:02.492Z,123
2023-05-12T03:00:09.428Z,128
2023-05-12T03:01:16.486Z,117
2023-05-12T03:02:23.371Z,124
2023-05-12T03:03:30.276Z,122
2023-05-12T03:04:37.093Z,120
2023-05-12T03:05:44.089Z,118
2023-05-12T03:06:50.891Z,115
2023-05-12T03:07:57.789Z,119
2023-05-12T03:09:04.706Z,113
2023-05-12T03:10:11.561Z,123
2023-05-12T03:11:18.450Z,116
2023-05-12T03:12:25.314Z,120
2023-05-12T03:13:35.030Z,114
2023-05-12T03:14:41.831Z,126
2023-05-12T03:15:48.750Z,119
2023-05-12T03:16:55.638Z,122
2023-05-12T03:18:02.522Z,111
2023-05-12T03:19:09.535Z,118
2023-05-12T03:20:16.281Z,114
2023-05-12T03:21:28.959Z,113
2023-05-12T03:22:35.901Z,118
2023-05-12T03:23:42.726Z,124
2023-05-12T03:24:49.544Z,116
2023-05-12T03:25:56.375Z,123
2023-05-12T03:27:03.257Z,115
2023-05-12T03:28:10.101Z,121
2023-05-12T03:29:17.076Z,121
2023-05-12T03:30:24.039Z,119
2023-05-12T03:31:30.893Z,120
2023-05-12T03:32:37.735Z,124
2023-05-12T03:33:44.440Z,122
2023-05-12T03:34:51.335Z,124
2023-05-12T03:35:58.208Z,121
2023-05-12T03:37:05.059Z,117
2023-05-12T03:38:12.026Z,117
2023-05-12T03:39:18.919Z,119
2023-05-12T03:40:25.850Z,121
2023-05-12T03:41:32.899Z,118
2023-05-12T03:42:39.792Z,117
2023-05-12T03:43:46.690Z,117
2023-05-12T03:44:53.650Z,119
2023-05-12T03:46:00.608Z,117
2023-05-12T03:47:07.514Z,124
2023-05-12T03:48:14.312Z,116
2023-05-12T03:49:21.137Z,112
2023-05-12T03:50:27.995Z,121
2023-05-12T03:51:34.905Z,113
2023-05-12T03:52:41.761Z,116
2023-05-12T03:53:48.544Z,110
2023-05-12T03:54:55.399Z,128
2023-05-12T03:56:02.411Z,115
2023-05-12T03:57:09.329Z,108
2023-05-12T03:58:16.181Z,122
2023-05-12T03:59:23.093Z,124
2023-05-12T04:00:29.959Z,115
2023-05-12T04:01:36.927Z,119
2023-05-12T04:02:44.087Z,123
2023-05-12T04:03:50.862Z,118
2023-05-12T04:04:58.015Z,116
2023-05-12T04:06:04.871Z,117
2023-05-12T04:07:12.135Z,116
2023-05-12T04:08:19.082Z,116
2023-05-12T04:09:28.947Z,125
2023-05-12T04:10:35.946Z,119
2023-05-12T04:11:42.844Z,113
2023-05-12T04:12:49.799Z,116
2023-05-12T04:13:56.771Z,114
2023-05-12T04:15:03.779Z,110
2023-05-12T04:16:10.925Z,114
2023-05-12T04:17:17.820Z,115
2023-05-12T04:18:24.661Z,118
2023-05-12T04:19:32.613Z,119
2023-05-12T04:20:39.432Z,115
2023-05-12T04:21:46.264Z,116
2023-05-12T04:22:53.165Z,119
2023-05-12T04:24:06.882Z,113
2023-05-12T04:25:13.726Z,120
2023-05-12T04:26:20.626Z,120
2023-05-12T04:27:27.579Z,119
2023-05-12T04:28:54.970Z,119
2023-05-12T04:30:01.849Z,116
2023-05-12T04:31:09.032Z,114
2023-05-12T04:32:16.164Z,123
2023-05-12T04:33:22.803Z,126
2023-05-12T04:34:29.649Z,119
2023-05-12T04:35:36.501Z,119
2023-05-12T04:36:43.454Z,114
2023-05-12T04:37:50.315Z,109
2023-05-12T04:38:57.147Z,123
2023-05-12T04:40:03.961Z,115
2023-05-12T04:41:10.991Z,121
2023-05-12T04:42:17.847Z,116
2023-05-12T04:44:31.544Z,120
2023-05-12T04:45:38.404Z,116
2023-05-12T04:46:45.288Z,122
2023-05-12T04:47:52.257Z,111
2023-05-12T04:48:58.999Z,121
2023-05-12T04:50:05.827Z,117
2023-05-12T04:51:12.893Z,115
2023-05-12T04:52:19.917Z,117
2023-05-12T04:54:09.554Z,113
2023-05-12T04:55:16.422Z,120
2023-05-12T04:56:23.323Z,113
2023-05-12T04:57:30.141Z,117
2023-05-12T04:58:36.999Z,117
2023-05-12T04:59:43.941Z,112
2023-05-12T05:00:50.789Z,113
2023-05-12T05:01:57.633Z,117
2023-05-12T05:03:04.554Z,108
2023-05-12T05:04:11.409Z,114
2023-05-12T05:05:18.366Z,120
2023-05-12T05:06:25.132Z,116
2023-05-12T05:07:31.985Z,113
2023-05-12T05:08:38.845Z,113
2023-05-12T05:09:45.811Z,120
2023-05-12T05:10:52.611Z,119
2023-05-12T05:11:59.467Z,116
2023-05-12T05:13:06.317Z,115
2023-05-12T05:14:13.241Z,117
2023-05-12T05:15:20.534Z,116
2023-05-12T05:16:27.197Z,116
2023-05-12T05:17:33.980Z,112
2023-05-12T05:18:40.923Z,114
2023-05-12T05:19:55.913Z,115
2023-05-12T05:20:58.263Z,116
2023-05-12T05:22:01.585Z,118
2023-05-12T05:23:08.648Z,116
2023-05-12T05:24:15.511Z,114
2023-05-12T05:25:22.382Z,113
2023-05-12T05:26:29.308Z,114
2023-05-12T05:27:36.155Z,112
2023-05-12T05:28:43.048Z,116
2023-05-12T05:29:50.018Z,116
2023-05-12T05:30:59.573Z,115
2023-05-12T05:32:06.426Z,113
2023-05-12T05:33:13.409Z,116
2023-05-12T05:34:20.269Z,114
2023-05-12T05:35:26.983Z,111
2023-05-12T05:36:33.908Z,113
2023-05-12T05:37:40.785Z,111
2023-05-12T05:38:47.616Z,109
2023-05-12T05:39:54.457Z,112
2023-05-12T05:41:01.281Z,113
2023-05-12T05:42:08.355Z,105
2023-05-12T05:43:15.160Z,105
2023-05-12T05:44:21.982Z,108
2023-05-12T05:45:28.806Z,104
2023-05-12T05:46:35.744Z,106
2023-05-12T05:47:42.833Z,97
2023-05-12T05:48:49.514Z,81
2023-05-12T05:49:56.385Z,94
2023-05-12T05:51:03.139Z,96
2023-05-12T05:52:10.026Z,106
2023-05-12T05:53:17.041Z,103
2023-05-12T05:54:23.672Z,91
2023-05-12T05:55:30.553Z,91
2023-05-12T05:56:37.375Z,103
2023-05-12T05:57:44.234Z,91
2023-05-12T05:58:51.212Z,83
2023-05-12T05:59:58.053Z,80
2023-05-12T06:01:04.897Z,75
2023-05-12T06:02:11.739Z,81
2023-05-12T06:03:18.799Z,75
2023-05-12T06:04:25.440Z,82
2023-05-12T06:05:32.382Z,74
2023-05-12T06:06:39.223Z,77
2023-05-12T06:07:46.119Z,73
2023-05-12T06:08:52.988Z,60
2023-05-12T06:09:59.799Z,72
2023-05-12T06:11:06.686Z,67
2023-05-12T06:12:13.489Z,61
2023-05-12T06:13:20.418Z,63
2023-05-12T06:14:27.309Z,64
2023-05-12T06:15:36.176Z,54
2023-05-12T06:16:44.534Z,55
2023-05-12T06:17:51.279Z,44
2023-05-12T06:18:58.132Z,37
2023-05-12T06:20:04.969Z,44
2023-05-12T06:21:12.128Z,34
2023-05-12T06:22:18.837Z,41
2023-05-12T06:23:25.773Z,38
2023-05-12T06:24:32.601Z,35
2023-05-12T06:25:39.533Z,34
2023-05-12T06:26:46.281Z,36
2023-05-12T06:27:53.156Z,29
2023-05-12T06:28:59.979Z,33
2023-05-12T06:30:06.758Z,47
2023-05-12T06:31:13.909Z,33
2023-05-12T06:32:20.783Z,39
2023-05-12T06:33:27.571Z,26
2023-05-12T06:34:34.421Z,38
2023-05-12T06:35:41.343Z,31
2023-05-12T06:36:51.310Z,25
2023-05-12T06:37:57.818Z,30
2023-05-12T06:39:04.651Z,29
2023-05-12T06:40:11.570Z,32
2023-05-12T06:41:18.440Z,26
2023-05-12T06:42:25.377Z,31
2023-05-12T06:43:32.298Z,30
2023-05-12T06:44:41.192Z,30
2023-05-12T06:45:44.215Z,30
2023-05-12T06:46:51.114Z,25
2023-05-12T06:47:58.113Z,31
2023-05-12T06:49:04.938Z,27
2023-05-12T06:50:12.564Z,38
2023-05-12T06:51:19.447Z,31
2023-05-12T06:52:26.434Z,27
2023-05-12T06:53:33.249Z,61
2023-05-12T06:54:42.788Z,42
2023-05-12T06:55:49.607Z,36
2023-05-12T06:56:56.429Z,28
2023-05-12T06:58:03.256Z,33
2023-05-12T06:59:10.245Z,29
2023-05-12T07:00:18.772Z,27
2023-05-12T07:01:25.811Z,26
2023-05-12T07:02:32.637Z,55
2023-05-12T07:03:39.453Z,32
2023-05-12T07:04:46.259Z,25
2023-05-12T07:05:53.128Z,34
2023-05-12T07:07:00.189Z,27
2023-05-12T07:08:07.435Z,30
2023-05-12T07:09:14.522Z,25
2023-05-12T07:10:21.644Z,29
2023-05-12T07:11:28.735Z,35
2023-05-12T07:12:35.778Z,37
2023-05-12T07:13:42.840Z,25
2023-05-12T07:14:49.940Z,26
2023-05-12T07:15:57.087Z,25
2023-05-12T07:17:04.143Z,25
2023-05-12T07:18:11.175Z,51
2023-05-12T07:19:18.230Z,46
2023-05-12T07:20:25.378Z,32
2023-05-12T07:21:32.513Z,47
2023-05-12T07:22:39.588Z,45
2023-05-12T07:23:46.696Z,34
2023-05-12T07:24:53.694Z,34
2023-05-12T07:26:00.773Z,41
2023-05-12T07:27:07.970Z,46
2023-05-12T07:28:15.043Z,33
2023-05-12T07:29:22.172Z,31
2023-05-12T07:30:29.238Z,54
2023-05-12T07:31:36.376Z,27
2023-05-12T07:32:43.463Z,37
2023-05-12T07:34:14.472Z,36
2023-05-12T07:35:21.892Z,40
2023-05-12T07:36:28.835Z,25
2023-05-12T07:37:36.020Z,31
2023-05-12T07:38:43.553Z,25
2023-05-12T07:39:58.956Z,33
2023-05-12T07:41:06.405Z,30
2023-05-12T07:42:13.870Z,31
2023-05-12T07:43:20.949Z,50
2023-05-12T07:44:28.123Z,41
2023-05-12T07:45:40.068Z,42
2023-05-12T07:46:47.343Z,31
2023-05-12T07:47:54.426Z,25
2023-05-12T07:49:02.601Z,51
2023-05-12T07:50:09.815Z,59
2023-05-12T07:51:17.041Z,57
2023-05-12T07:52:24.273Z,35
2023-05-12T07:53:36.281Z,47
2023-05-12T07:54:43.400Z,45
2023-05-12T07:56:02.501Z,51
2023-05-12T07:57:19.203Z,55
2023-05-12T07:58:26.290Z,44
2023-05-12T07:59:33.359Z,63
2023-05-12T08:00:50.217Z,47
2023-05-12T08:02:11.896Z,39
2023-05-12T08:03:19.072Z,48
2023-05-12T08:04:32.090Z,42
2023-05-12T08:05:43.901Z,32
2023-05-12T08:06:51.047Z,31
2023-05-12T08:07:58.266Z,38
2023-05-12T08:09:05.327Z,40
2023-05-12T08:10:26.015Z,53
2023-05-12T08:11:33.241Z,45
2023-05-12T08:12:40.152Z,31
2023-05-12T08:13:47.205Z,41
2023-05-12T08:14:54.376Z,26
2023-05-12T08:16:01.559Z,25
2023-05-12T08:17:29.337Z,30
2023-05-12T08:18:35.261Z,36
2023-05-12T08:19:42.289Z,38
2023-05-12T08:20:49.493Z,45
2023-05-12T08:21:56.571Z,43
2023-05-12T08:23:07.868Z,42
2023-05-12T08:24:14.914Z,31
2023-05-12T08:25:22.194Z,34
2023-05-12T08:26:29.303Z,47
2023-05-12T08:27:36.423Z,51
2023-05-12T08:28:43.623Z,42
2023-05-12T08:29:50.793Z,42
2023-05-12T08:30:57.873Z,41
2023-05-12T08:32:22.241Z,29
2023-05-12T08:34:22.504Z,29
2023-05-12T08:35:29.716Z,33
2023-05-12T08:36:36.942Z,33
2023-05-12T08:37:43.999Z,43
2023-05-12T08:38:56.056Z,30
2023-05-12T08:40:03.282Z,37
2023-05-12T08:41:10.715Z,50
2023-05-12T08:42:22.799Z,61
2023-05-12T08:43:44.738Z,56
2023-05-12T08:44:54.745Z,50
2023-05-12T08:46:03.869Z,40
2023-05-12T08:47:10.870Z,25
2023-05-12T08:48:18.049Z,36
2023-05-12T08:49:25.601Z,46
2023-05-12T08:50:32.736Z,38
2023-05-12T08:51:39.756Z,40
2023-05-12T08:52:49.552Z,48
2023-05-12T08:53:56.631Z,53
2023-05-12T08:55:03.786Z,58
2023-05-12T08:57:27.480Z,57
2023-05-12T08:58:40.746Z,59
2023-05-12T08:59:56.656Z,44
2023-05-12T09:01:03.739Z,34
2023-05-12T09:02:12.014Z,42
2023-05-12T09:03:37.666Z,47
2023-05-12T09:04:54.718Z,47
2023-05-12T09:06:06.746Z,60
2023-05-12T09:07:19.842Z,42
2023-05-12T09:08:29.011Z,47
2023-05-12T09:09:36.133Z,51
2023-05-12T09:10:47.225Z,56
2023-05-12T09:11:54.303Z,41
2023-05-12T09:13:08.406Z,31
2023-05-12T09:14:26.604Z,49
2023-05-12T09:15:45.665Z,34
2023-05-12T09:17:09.225Z,33
2023-05-12T09:19:04.676Z,43
2023-05-12T09:20:17.828Z,46
2023-05-12T09:21:17.135Z,48
2023-05-12T09:22:24.215Z,57
2023-05-12T09:23:31.379Z,53
2023-05-12T09:24:38.864Z,46
2023-05-12T09:25:45.968Z,54
2023-05-12T09:27:18.232Z,64
2023-05-12T09:28:38.789Z,60
2023-05-12T09:30:27.480Z,41
2023-05-12T09:31:34.631Z,33
2023-05-12T09:32:41.686Z,34
2023-05-12T09:33:48.900Z,37
2023-05-12T09:34:55.966Z,35
2023-05-12T09:36:05.881Z,45
2023-05-12T09:37:15.159Z,43
2023-05-12T09:38:20.192Z,25
2023-05-12T09:39:27.228Z,27
2023-05-12T09:40:34.315Z,30
2023-05-12T09:41:41.328Z,28
2023-05-12T09:42:48.450Z,25
2023-05-12T09:43:55.450Z,45
2023-05-12T09:45:02.231Z,37
2023-05-12T09:46:11.906Z,34
2023-05-12T09:47:19.982Z,34
2023-05-12T09:48:42.491Z,25
2023-05-12T09:50:08.886Z,64
2023-05-12T09:51:15.690Z,37
2023-05-12T09:52:22.555Z,43
2023-05-12T09:53:29.479Z,56
2023-05-12T09:54:36.487Z,40
2023-05-12T09:55:43.394Z,55
2023-05-12T09:56:51.364Z,70
2023-05-12T09:58:01.004Z,36
2023-05-12T09:59:10.798Z,35
2023-05-12T10:00:33.076Z,31
2023-05-12T10:01:24.972Z,37
2023-05-12T10:02:31.758Z,53
2023-05-12T10:03:38.483Z,70
2023-05-12T10:04:45.472Z,73
2023-05-12T10:06:17.420Z,65
2023-05-12T10:07:24.295Z,58
2023-05-12T10:08:31.152Z,45
2023-05-12T10:09:39.113Z,47
2023-05-12T10:10:45.906Z,50
2023-05-12T10:11:54.725Z,54
2023-05-12T10:13:43.364Z,36
2023-05-12T10:14:50.276Z,41
2023-05-12T10:16:03.209Z,36
2023-05-12T10:17:16.024Z,44
2023-05-12T10:18:28.776Z,40
2023-05-12T10:19:43.577Z,27
2023-05-12T10:20:50.417Z,39
2023-05-12T10:22:09.643Z,41
2023-05-12T10:23:24.143Z,49
2023-05-12T10:24:41.681Z,59
2023-05-12T10:25:48.607Z,57
2023-05-12T10:26:55.426Z,49
2023-05-12T10:28:02.267Z,35
2023-05-12T10:29:16.783Z,50
2023-05-12T10:30:23.479Z,86
2023-05-12T10:31:30.517Z,88
2023-05-12T10:32:37.373Z,71
2023-05-12T10:33:44.267Z,65
2023-05-12T10:35:01.518Z,74
2023-05-12T10:36:11.271Z,63
2023-05-12T10:37:46.574Z,69
2023-05-12T10:38:54.615Z,47
2023-05-12T10:40:01.603Z,51
2023-05-12T10:41:08.720Z,30
2023-05-12T10:42:32.908Z,38
2023-05-12T10:43:42.400Z,41
2023-05-12T10:44:49.207Z,58
2023-05-12T10:45:56.148Z,69
2023-05-12T10:47:13.374Z,67
2023-05-12T10:48:19.885Z,62
2023-05-12T10:49:27.019Z,56
2023-05-12T10:50:38.856Z,39
2023-05-12T10:51:45.779Z,25
2023-05-12T10:52:52.733Z,51
2023-05-12T10:53:59.612Z,72
2023-05-12T10:55:06.546Z,60
2023-05-12T10:56:13.608Z,44
2023-05-12T10:57:20.394Z,75
2023-05-12T10:58:27.412Z,72
2023-05-12T10:59:34.512Z,72
2023-05-12T11:01:00.334Z,54
2023-05-12T11:02:12.316Z,67
2023-05-12T11:03:28.995Z,59
2023-05-12T11:04:35.193Z,68
2023-05-12T11:05:53.160Z,66
2023-05-12T11:07:02.973Z,60
2023-05-12T11:08:09.326Z,53
2023-05-12T11:09:15.817Z,54
2023-05-12T11:10:22.717Z,56
2023-05-12T11:11:29.803Z,46
2023-05-12T11:12:36.535Z,44
2023-05-12T11:13:43.065Z,35
2023-05-12T11:14:50.084Z,43
2023-05-12T11:15:57.059Z,36
2023-05-12T11:17:03.873Z,39
2023-05-12T11:18:10.749Z,45
2023-05-12T11:19:17.529Z,38
2023-05-12T11:20:24.498Z,62
2023-05-12T11:21:31.428Z,49
2023-05-12T11:22:38.540Z,60
2023-05-12T11:23:45.483Z,49
2023-05-12T11:24:52.968Z,60
2023-05-12T11:25:59.453Z,61
2023-05-12T11:27:06.298Z,61
2023-05-12T11:28:15.750Z,47
2023-05-12T11:29:22.636Z,63
2023-05-12T11:30:29.496Z,45
2023-05-12T11:31:36.418Z,42
2023-05-12T11:32:43.330Z,33
2023-05-12T11:33:56.027Z,50
2023-05-12T11:35:07.281Z,43
2023-05-12T11:36:21.646Z,57
2023-05-12T11:37:27.613Z,51
2023-05-12T11:38:34.636Z,48
2023-05-12T11:39:41.416Z,35
2023-05-12T11:40:48.350Z,37
2023-05-12T11:42:02.292Z,40
2023-05-12T11:43:07.099Z,45
2023-05-12T11:44:13.880Z,41
2023-05-12T11:45:20.947Z,32
2023-05-12T11:46:27.710Z,34
2023-05-12T11:47:34.583Z,31
2023-05-12T11:48:41.386Z,25
2023-05-12T11:49:48.217Z,36
2023-05-12T11:50:54.974Z,38
2023-05-12T11:52:01.938Z,35
2023-05-12T11:53:08.709Z,35
2023-05-12T11:54:18.587Z,35
2023-05-12T11:55:25.430Z,28
2023-05-12T11:56:32.230Z,45
2023-05-12T11:57:39.037Z,33
2023-05-12T11:58:45.951Z,29
2023-05-12T11:59:55.479Z,35
2023-05-12T12:01:02.292Z,36
2023-05-12T12:02:11.669Z,28
2023-05-12T12:03:18.570Z,32
2023-05-12T12:04:25.491Z,26
2023-05-12T12:05:37.301Z,29
2023-05-12T12:06:44.070Z,31
2023-05-12T12:07:51.094Z,35
2023-05-12T12:08:57.873Z,27
2023-05-12T12:10:04.646Z,36
2023-05-12T12:11:14.330Z,36
2023-05-12T12:12:21.183Z,47
2023-05-12T12:13:35.412Z,37
2023-05-12T12:14:42.213Z,49
2023-05-12T12:15:49.117Z,31
2023-05-12T12:16:56.083Z,49
2023-05-12T12:18:02.988Z,44
2023-05-12T12:19:09.872Z,63
2023-05-12T12:20:16.650Z,46
2023-05-12T12:21:23.501Z,38
2023-05-12T12:22:30.323Z,46
2023-05-12T12:23:47.608Z,49
2023-05-12T12:24:44.068Z,38
2023-05-12T12:25:50.945Z,45
2023-05-12T12:26:57.878Z,38
2023-05-12T12:28:04.753Z,38
2023-05-12T12:29:11.574Z,31
2023-05-12T12:30:18.366Z,30
2023-05-12T12:31:25.299Z,37
2023-05-12T12:32:32.238Z,30
2023-05-12T12:33:39.058Z,41
2023-05-12T12:34:46.053Z,36
2023-05-12T12:35:52.993Z,50
2023-05-12T12:36:59.961Z,37
2023-05-12T12:38:06.838Z,28
2023-05-12T12:39:13.672Z,49
2023-05-12T12:40:20.669Z,48
2023-05-12T12:41:27.677Z,53
2023-05-12T12:42:34.881Z,50
2023-05-12T12:43:41.901Z,39
2023-05-12T12:44:48.982Z,62
2023-05-12T12:45:55.980Z,49
2023-05-12T12:47:02.990Z,38
2023-05-12T12:48:10.452Z,58
2023-05-12T12:49:18.022Z,43
2023-05-12T12:50:26.487Z,57
2023-05-12T12:51:42.348Z,47
2023-05-12T12:52:39.769Z,56
2023-05-12T12:53:46.825Z,52
2023-05-12T12:54:54.041Z,67
2023-05-12T12:56:01.226Z,54
2023-05-12T12:57:08.220Z,72
2023-05-12T12:58:15.226Z,46
2023-05-12T12:59:22.259Z,63
2023-05-12T13:00:29.816Z,45
2023-05-12T13:01:37.179Z,40
2023-05-12T13:02:44.301Z,39
2023-05-12T13:03:51.489Z,33
2023-05-12T13:04:58.544Z,44
2023-05-12T13:06:13.052Z,44
2023-05-12T13:07:19.997Z,48
2023-05-12T13:08:27.102Z,43
2023-05-12T13:09:34.747Z,39
2023-05-12T13:10:41.685Z,35
2023-05-12T13:11:48.584Z,25
2023-05-12T13:12:55.496Z,60
2023-05-12T13:14:02.480Z,41
2023-05-12T13:15:09.555Z,39
2023-05-12T13:16:16.515Z,46
2023-05-12T13:17:26.549Z,48
2023-05-12T13:18:33.546Z,58
2023-05-12T13:19:40.468Z,57
2023-05-12T13:20:51.288Z,53
2023-05-12T13:22:01.948Z,39
2023-05-12T13:23:09.970Z,49
2023-05-12T13:24:16.947Z,37
2023-05-12T13:25:23.986Z,54
2023-05-12T13:26:31.084Z,47
2023-05-12T13:27:38.018Z,37
2023-05-12T13:28:45.156Z,25
2023-05-12T13:29:52.862Z,48
2023-05-12T13:30:59.995Z,44
2023-05-12T13:32:07.547Z,32
2023-05-12T13:33:14.698Z,30
2023-05-12T13:34:21.898Z,30
2023-05-12T13:35:28.946Z,30
2023-05-12T13:36:36.738Z,33
2023-05-12T13:37:46.614Z,29
2023-05-12T13:38:53.831Z,38
2023-05-12T13:40:00.846Z,33
2023-05-12T13:41:08.064Z,38
2023-05-12T13:42:15.717Z,31
2023-05-12T13:43:22.760Z,35
2023-05-12T13:44:29.833Z,32
2023-05-12T13:45:37.895Z,39
2023-05-12T13:46:45.374Z,43
2023-05-12T13:47:52.447Z,47
2023-05-12T13:48:59.678Z,44
2023-05-12T13:50:06.922Z,39
2023-05-12T13:51:14.007Z,35
2023-05-12T13:52:23.276Z,36
2023-05-12T13:53:33.766Z,37
2023-05-12T13:54:40.829Z,41
2023-05-12T13:55:47.963Z,28
2023-05-12T13:56:54.932Z,39
2023-05-12T13:58:05.066Z,41
2023-05-12T13:59:12.053Z,44
2023-05-12T14:00:21.718Z,34
2023-05-12T14:01:28.834Z,28
2023-05-12T14:02:35.798Z,35
2023-05-12T14:03:43.389Z,36
2023-05-12T14:04:53.281Z,41
2023-05-12T14:06:00.273Z,45
2023-05-12T14:07:08.699Z,46
2023-05-12T14:08:15.045Z,44
2023-05-12T14:09:22.264Z,44
2023-05-12T14:10:29.337Z,45
2023-05-12T14:11:39.309Z,36
2023-05-12T14:12:46.806Z,35
2023-05-12T14:13:54.119Z,36
2023-05-12T14:15:12.194Z,31
2023-05-12T14:16:22.162Z,40
2023-05-12T14:17:29.135Z,48
2023-05-12T14:18:36.307Z,53
2023-05-12T14:19:43.628Z,59
2023-05-12T14:20:50.699Z,46
2023-05-12T14:21:57.733Z,42
2023-05-12T14:23:04.743Z,47
2023-05-12T14:24:11.741Z,51
2023-05-12T14:25:19.159Z,57
2023-05-12T14:26:25.951Z,52
2023-05-12T14:27:33.134Z,55
2023-05-12T14:28:40.250Z,54
2023-05-12T14:29:48.318Z,45
2023-05-12T14:30:56.638Z,50
2023-05-12T14:32:03.700Z,48
2023-05-12T14:33:10.863Z,45
2023-05-12T14:34:17.840Z,44
2023-05-12T14:35:24.774Z,48
2023-05-12T14:36:34.645Z,37
2023-05-12T14:37:41.683Z,37
2023-05-12T14:38:48.835Z,29
2023-05-12T14:39:55.862Z,46
2023-05-12T14:41:02.991Z,46
2023-05-12T14:42:09.987Z,40
2023-05-12T14:43:16.902Z,35
2023-05-12T14:44:23.883Z,52
2023-05-12T14:45:34.397Z,50
2023-05-12T14:46:41.025Z,46
2023-05-12T14:47:48.339Z,38
2023-05-12T14:48:55.222Z,35
2023-05-12T14:50:02.211Z,41
2023-05-12T14:51:09.439Z,44
2023-05-12T14:52:17.190Z,46
2023-05-12T14:53:24.300Z,41
2023-05-12T14:54:31.447Z,29
2023-05-12T14:55:41.606Z,49
2023-05-12T14:56:48.607Z,45
2023-05-12T14:57:55.853Z,50
2023-05-12T14:59:05.714Z,34
2023-05-12T15:00:12.899Z,35
2023-05-12T15:01:20.181Z,47
2023-05-12T15:02:27.133Z,47
2023-05-12T15:03:35.578Z,44
2023-05-12T15:04:45.439Z,43
2023-05-12T15:06:05.411Z,34
2023-05-12T15:07:00.466Z,40
2023-05-12T15:08:07.855Z,35
2023-05-12T15:09:15.042Z,36
2023-05-12T15:10:25.011Z,41
2023-05-12T15:11:32.027Z,53
2023-05-12T15:12:39.103Z,48
2023-05-12T15:13:46.161Z,40
2023-05-12T15:14:53.859Z,42
2023-05-12T15:16:03.643Z,36
2023-05-12T15:17:11.670Z,40
2023-05-12T15:18:19.470Z,45
2023-05-12T15:19:26.722Z,40
2023-05-12T15:20:33.618Z,40
2023-05-12T15:21:43.719Z,40
2023-05-12T15:22:50.638Z,37
2023-05-12T15:24:02.185Z,35
2023-05-12T15:25:09.268Z,35
2023-05-12T15:26:31.730Z,35
2023-05-12T15:27:23.728Z,39
2023-05-12T15:28:31.287Z,41
2023-05-12T15:29:38.420Z,39
2023-05-12T15:30:45.413Z,35
2023-05-12T15:32:00.017Z,43
2023-05-12T15:33:09.108Z,36
2023-05-12T15:34:15.970Z,38
2023-05-12T15:35:23.266Z,33
2023-05-12T15:36:30.310Z,46
2023-05-12T15:37:37.365Z,45
2023-05-12T15:38:44.323Z,39
2023-05-12T15:39:51.292Z,34
2023-05-12T15:40:58.983Z,33
2023-05-12T15:42:07.364Z,35
2023-05-12T15:43:12.914Z,28
2023-05-12T15:44:19.947Z,36
2023-05-12T15:45:26.913Z,34
2023-05-12T15:46:36.434Z,34
2023-05-12T15:47:43.774Z,33
2023-05-12T15:48:51.427Z,41
2023-05-12T15:49:58.731Z,39
2023-05-12T15:51:05.701Z,43
2023-05-12T15:52:12.711Z,35
2023-05-12T15:53:19.675Z,45
2023-05-12T15:54:26.964Z,40
2023-05-12T15:55:37.036Z,40
2023-05-12T15:56:44.046Z,37
2023-05-12T15:57:54.020Z,37
2023-05-12T15:59:00.997Z,42
2023-05-12T16:00:10.978Z,37
2023-05-12T16:01:21.178Z,35
2023-05-12T16:02:28.255Z,35
2023-05-12T16:03:35.808Z,29
2023-05-12T16:04:45.679Z,31